Terminal Aerodrome Forecast
Issued by NWS

Home | Current Version | Previous Version | Text Only | Print | Product List | Glossary On
Versions: 1 2 3 4 5 6 7 8 9 10 11 12 13 14 15
000
FTUS43 KDVN 271000 AAA
TAFCID
TAF AMD
KCID 271031Z 2711/2806 27005KT 2SM BR SKC
     FM271500 31016G22KT P6SM SCT050
     FM271800 31022G32KT P6SM SCT060
     FM280100 32012KT P6SM SCT200=

USA.gov is the U.S. government's official web portal to all federal, state and local government web resources and services.